メインページ
METAR-TAF:

METAR-TAF

空港 :

サンティアゴ, チリ

アルトゥーロ・メリノ・ベニテス国際空港

緯度: 33-23S, 経度: 070-47W, 海抜: 475m

現時点の気象観測

当レポートは25分前の17:00(UTC)に作成
変向風 3kt
気温 13°C
湿度 62%
気圧 1018 hPa
視程: 8000m
高度2000ftの雲は散在している

METAR: SCEL 231700Z VRB03KT 8000 SCT020 13/06 Q1018 NOSIG

時間: 14:25 (17:25 UTC)

予報

当レポートは6時間55分前の10:30(UTC)に作成
予報は23日の 12時(UTC)から 24日の 12時(UTC)まで有効
変向風 2kt
視程: 6000m
高度700ftの千切れ雲あり
高度1200ftの千切れ雲あり
23日の 13時(UTC)から 23日の 15時(UTC)まで徐々に
変向風 2kt
視程10km以上
高度1000ftの雲は散在している
高度4000ftの千切れ雲あり
23日の 15時(UTC)から 23日の 17時(UTC)まで徐々に
南西の風 4kt
高度3000ftの雲はほとんどない
高度5000ftの雲は散在している
23日の 19時(UTC)から 23日の 21時(UTC)まで徐々に
高度5000ftの雲は散在している
23日の 21時(UTC)から 23日の 23時(UTC)まで徐々に
の風 8kt
視程10km以上
1,500メートル以下は雲なし、積乱雲なし
24日の 02時(UTC)から 24日の 04時(UTC)まで徐々に
変向風 2kt

TAF: SCEL 231030Z 2312/2412 VRB02KT 6000 BKN007 BKN012 TX14/2318Z TN05/2410Z BECMG 2313/2315 VRB02KT 9999 SCT010 BKN040 BECMG 2315/2317 22004KT FEW030 SCT050 BECMG 2319/2321 SCT050 BECMG 2321/2323 19008KT CAVOK BECMG 2402/2404 VRB02KT

4,000以上の空港の気象観測と天気予報(METAR報とTAF報)

利用可能な観測所は地図上に黄色い丸と赤い丸で示す。

丸の上にカーソルを重ねると観測所名を参照できる。

次にクリックすると気象観測と天気予報を参照できる。

マップの切り替え:黒色「×」印の緑ボタンをクリックして拡大、「-」印の緑ボタンをクリックして縮小、緑色の三角印をクリックして隣りの地図に切り替え


METAR-TAF: